Flight Track Log - Related Links

Times and Time Zones

All times are in EDT time to prevent confusion due to time zone crossing. See the ASQ3841 flight status page for this flight to view local times or setup timezone preferences in your user account.

Time Position Orientation Groundspeed Altitude Reporting Facility
EDT Latitude Longitude Course Direction KTS MPH feet Rate Location/Type
Fri 03:29:00 PM 41.1486 -73.6565 27° Northeast  Level FlightAware Approximate
Fri 03:30:00 PM 41.2444 -73.5556 37° Northeast  Level FlightAware Approximate
Fri 03:31:00 PM 41.3434 -73.4566 37° Northeast  Level FlightAware Approximate
Fri 03:32:00 PM 41.4359 -73.3474 37° Northeast  Level FlightAware Approximate
Fri 03:33:00 PM 41.5225 -73.2382 56° Northeast  Level FlightAware Approximate
Fri 03:34:00 PM 41.6120 -73.1249 41° Northeast  Level FlightAware Approximate
Fri 03:35:00 PM 41.7266 -73.1181 354° North  Level FlightAware Approximate
Fri 03:36:00 PM 41.8498 -73.1356 354° North  Level FlightAware Approximate
Fri 03:37:00 PM 41.9729 -73.1532 354° North  Level FlightAware Approximate
Fri 03:38:00 PM 42.0959 -73.1725 352° North  Level FlightAware Approximate
Fri 03:39:00 PM 42.2185 -73.1969 352° North  Level FlightAware Approximate
Fri 03:40:00 PM 42.3410 -73.2213 352° North  Level FlightAware Approximate
Fri 03:41:00 PM 42.4635 -73.2459 352° North  Level FlightAware Approximate
Fri 03:42:00 PM 42.5747 -73.2425 66° East  Level FlightAware Approximate
Fri 03:43:00 PM 42.6142 -73.0832 73° East  Level FlightAware Approximate
Fri 03:44:00 PM 42.6447 -72.9214 71° East  Level FlightAware Approximate
Fri 03:45:00 PM 42.6836 -72.7615 72° East  Level FlightAware Approximate
Fri 03:46:00 PM 42.7212 -72.6009 72° East  Level FlightAware Approximate
Fri 03:47:00 PM 42.7586 -72.4401 72° East  Level FlightAware Approximate
Fri 03:48:00 PM 42.7840 -72.2766 83° East  Level FlightAware Approximate
Fri 03:49:00 PM 42.7992 -72.1091 83° East  Level FlightAware Approximate
Fri 03:50:00 PM 42.8144 -71.9416 83° East  Level FlightAware Approximate
Fri 03:51:00 PM 42.8208 -71.7735 78° East  Level FlightAware Approximate
Fri 03:52:00 PM 42.8462 -71.6082 78° East  Level FlightAware Approximate
Fri 03:53:00 PM 42.8544 -71.4405 77° East  Level FlightAware Approximate
Fri 03:54:00 PM 42.9156 -71.4319 316° Northwest  Level FlightAware Approximate
Fri 03:55:00 PM 42.9167 -71.4333 316° Northwest  Level FlightAware Approximate
Fri 03:56:00 PM 42.9328 -71.4358 316° Northwest  Level Estimated
Fri 03:57:00 PM 42.9328 -71.4358 316° Northwest  Level Estimated
Fri 03:58:00 PM 42.9328 -71.4358 316° Northwest  Level Estimated
Fri 03:59:00 PM 42.9328 -71.4358 316° Northwest  Level Estimated
Fri 04:00:00 PM 42.9328 -71.4358 316° Northwest  Level Estimated
Fri 04:01:00 PM 42.9328 -71.4358 316° Northwest  Level Estimated
Fri 04:02:00 PM 42.9328 -71.4358 316° Northwest  Level Estimated
Fri 04:03:00 PM 42.9328 -71.4358 316° Northwest  Level Estimated
Fri 04:04:00 PM 42.9328 -71.4358 316° Northwest  Level Estimated
Fri 04:05:00 PM 42.9328 -71.4358 316° Northwest  Level Estimated
Fri 04:06:00 PM 42.9328 -71.4358 316° Northwest  Level Estimated
Fri 04:07:00 PM 42.9328 -71.4358 316° Northwest  Level Estimated
Fri 04:08:00 PM 42.9328 -71.4358 316° Northwest  Level Estimated

Login

Don't have an account? Register now (free) for customized features, flight alerts, and more!